< Typhoon 201527 2016 Season Typhoon 201602 >
Typhoon 201601 (NEPARTAK)
General InformationTrack Information on Google MapsDetailed Wind InformationForecast History on Google MapsAccess Analytics MapList of All Images || NewsDisaster Info.WeblogTrackbackTyphoon FrontTwiphoonTyphoon Now!Typhoon ImaginationDisaster Info. XMLResourceGoogle EarthGE AnimationAtom FeedGeoJSON
Detalied Best Track (Time Zone = UTC)
Year Month Day Hour Lat. Long. Pressure (hPa) Wind (kt) Class Image Chart
2016 7 2 12 8.3 145.1 1006 0 2 Image Chart
2016 7 2 18 8.6 145.0 1004 0 2 Image Chart
2016 7 3 00 8.9 144.9 1002 35 3 Image Chart
2016 7 3 06 9.2 144.8 1002 35 3 Image Chart
2016 7 3 12 10.0 144.4 1000 35 3 Image Chart
2016 7 3 18 10.9 143.9 996 40 3 Image Chart
2016 7 4 00 11.9 142.6 996 40 3 Image Chart
2016 7 4 06 12.8 141.1 994 45 3 Image Chart
2016 7 4 12 13.5 139.6 990 50 4 Image Chart
2016 7 4 18 14.5 138.2 980 60 4 Image Chart
2016 7 5 00 15.3 136.6 965 65 5 Image Chart
2016 7 5 06 16.3 135.1 955 75 5 Image Chart
2016 7 5 12 17.1 133.5 940 85 5 Image Chart
2016 7 5 18 18.0 131.9 925 95 5 Image Chart
2016 7 6 00 18.7 130.1 915 100 5 Image Chart
2016 7 6 06 19.5 128.4 900 110 5 Image Chart
2016 7 6 12 20.1 127.0 900 110 5 Image Chart
2016 7 6 18 20.7 125.6 900 110 5 Image Chart
2016 7 7 00 21.3 124.3 900 110 5 Image Chart
2016 7 7 06 21.6 123.4 900 110 5 Image Chart
2016 7 7 12 22.0 122.6 900 110 5 Image Chart
2016 7 7 18 22.4 121.7 920 90 5 Image Chart
2016 7 8 00 22.6 120.6 950 75 5 Image Chart
2016 7 8 06 23.2 120.1 975 65 5 Image Chart
2016 7 8 12 23.2 119.9 985 50 4 Image Chart
2016 7 8 18 23.4 119.8 985 45 3 Image Chart
2016 7 9 00 24.3 118.8 992 35 3 Image Chart
2016 7 9 06 24.8 118.5 994 0 2 Image Chart
2016 7 9 12 25.4 117.9 996 0 2 Image Chart
2016 7 9 18 25.9 117.2 996 0 2 Image Chart
2016 7 10 00 26.4 116.7 998 0 2 Image Chart
Japan Meteorological Agency Best Track Data | Correction Date : 2016-08-22
< Typhoon 201527 2016 Season Typhoon 201602 >

Help